createdAt,value
2022-08-08T00:01:08.952Z,18.00
2022-08-08T00:06:13.839Z,18.10
2022-08-08T00:11:17.469Z,18.10
2022-08-08T00:16:20.863Z,18.10
2022-08-08T00:21:25.486Z,18.10
2022-08-08T00:26:36.698Z,18.00
2022-08-08T00:32:28.388Z,17.80
2022-08-08T00:37:16.329Z,17.90
2022-08-08T00:43:25.031Z,17.70
2022-08-08T00:49:25.149Z,17.50
2022-08-08T00:55:16.689Z,17.30
2022-08-08T01:00:13.570Z,17.30
2022-08-08T01:05:58.594Z,17.20
2022-08-08T01:12:04.277Z,17.30
2022-08-08T01:17:53.922Z,17.40
2022-08-08T01:24:05.529Z,17.20
2022-08-08T01:29:59.878Z,17.20
2022-08-08T01:35:40.655Z,17.10
2022-08-08T01:40:46.461Z,17.00
2022-08-08T01:45:56.689Z,17.10
2022-08-08T01:51:29.784Z,17.10
2022-08-08T01:56:53.273Z,17.10
2022-08-08T02:02:09.733Z,17.20
2022-08-08T02:07:22.557Z,17.10
2022-08-08T02:12:26.033Z,17.00
2022-08-08T02:17:36.502Z,16.90
2022-08-08T02:22:55.080Z,16.80
2022-08-08T02:28:01.187Z,16.70
2022-08-08T02:34:00.595Z,16.70
2022-08-08T02:39:41.124Z,16.60
2022-08-08T02:45:51.827Z,16.70
2022-08-08T02:52:32.791Z,16.50
2022-08-08T02:58:09.968Z,16.40
2022-08-08T03:05:03.068Z,16.50
2022-08-08T03:10:32.940Z,16.40
2022-08-08T03:16:34.324Z,16.20
2022-08-08T03:21:40.715Z,16.40
2022-08-08T03:27:11.201Z,16.40
2022-08-08T03:32:23.525Z,16.10
2022-08-08T03:38:54.499Z,16.20
2022-08-08T03:42:40.066Z,16.30
2022-08-08T03:47:45.948Z,16.20
2022-08-08T03:52:45.075Z,16.20
2022-08-08T03:58:31.500Z,16.00
2022-08-08T04:03:02.304Z,16.40
2022-08-08T04:07:58.432Z,16.30
2022-08-08T04:12:56.198Z,16.30
2022-08-08T04:17:59.045Z,16.10
2022-08-08T04:22:52.861Z,16.20
2022-08-08T04:28:34.485Z,16.00
2022-08-08T04:33:05.421Z,15.90
2022-08-08T04:38:01.483Z,15.90
2022-08-08T04:43:00.833Z,15.70
2022-08-08T04:47:55.091Z,15.80
2022-08-08T04:53:01.019Z,15.80
2022-08-08T04:57:59.284Z,16.00
2022-08-08T05:02:53.262Z,16.10
2022-08-08T05:07:46.906Z,16.40
2022-08-08T05:12:53.515Z,16.60
2022-08-08T05:17:54.756Z,16.70
2022-08-08T05:22:50.318Z,16.90
2022-08-08T05:27:46.505Z,17.10
2022-08-08T05:32:41.078Z,17.00
2022-08-08T05:37:53.460Z,17.10
2022-08-08T05:43:03.435Z,17.20
2022-08-08T05:48:18.040Z,17.40
2022-08-08T05:54:24.790Z,17.40
2022-08-08T05:58:57.169Z,17.50
2022-08-08T06:04:08.435Z,17.60
2022-08-08T06:10:00.267Z,17.50
2022-08-08T06:14:26.431Z,17.60
2022-08-08T06:19:24.116Z,17.60
2022-08-08T06:24:23.088Z,17.70
2022-08-08T06:29:56.923Z,17.80
2022-08-08T06:34:57.706Z,17.90
2022-08-08T06:40:16.568Z,17.90
2022-08-08T06:45:12.818Z,18.00
2022-08-08T06:50:08.334Z,18.10
2022-08-08T06:55:08.369Z,18.30
2022-08-08T07:00:12.313Z,18.40
2022-08-08T07:05:12.047Z,18.50
2022-08-08T07:10:13.887Z,18.60
2022-08-08T07:15:32.094Z,18.80
2022-08-08T07:20:32.174Z,19.00
2022-08-08T07:25:32.062Z,19.10
2022-08-08T07:30:26.518Z,19.30
2022-08-08T07:35:20.973Z,19.60
2022-08-08T07:40:21.111Z,19.80
2022-08-08T07:45:26.443Z,20.10
2022-08-08T07:50:27.874Z,20.40
2022-08-08T07:55:28.751Z,20.70
2022-08-08T08:00:25.194Z,20.90
2022-08-08T08:05:26.232Z,21.10
2022-08-08T08:10:33.333Z,21.20
2022-08-08T08:15:32.359Z,21.30
2022-08-08T08:20:30.919Z,21.40
2022-08-08T08:25:43.823Z,21.50
2022-08-08T08:30:40.185Z,21.70
2022-08-08T08:36:17.768Z,21.90
2022-08-08T08:40:48.584Z,21.90
2022-08-08T08:45:45.260Z,22.10
2022-08-08T08:50:41.149Z,22.30
2022-08-08T08:55:39.993Z,22.40
2022-08-08T09:01:02.774Z,22.70
2022-08-08T09:05:54.854Z,23.00
2022-08-08T09:10:51.078Z,23.20
2022-08-08T09:15:44.796Z,23.20
2022-08-08T09:22:02.958Z,23.30
2022-08-08T09:26:04.811Z,23.50
2022-08-08T09:31:12.515Z,23.50
2022-08-08T09:36:08.038Z,23.70
2022-08-08T09:41:07.496Z,23.70
2022-08-08T09:46:03.664Z,23.70
2022-08-08T09:50:58.108Z,23.90
2022-08-08T09:56:04.851Z,24.10
2022-08-08T10:01:15.565Z,24.30
2022-08-08T10:06:19.779Z,24.50
2022-08-08T10:12:27.249Z,24.50
2022-08-08T10:16:41.924Z,24.60
2022-08-08T10:21:42.297Z,24.80
2022-08-08T10:26:59.326Z,24.90
2022-08-08T10:33:00.118Z,24.80
2022-08-08T10:37:57.682Z,25.00
2022-08-08T10:42:56.925Z,25.10
2022-08-08T10:54:21.627Z,25.10
2022-08-08T10:59:21.752Z,25.10
2022-08-08T11:04:17.717Z,25.10
2022-08-08T11:09:23.543Z,25.00
2022-08-08T11:14:16.954Z,25.00
2022-08-08T11:19:18.574Z,25.00
2022-08-08T11:24:18.894Z,25.30
2022-08-08T11:41:36.475Z,25.90
2022-08-08T12:00:29.069Z,25.90
2022-08-08T12:05:58.060Z,25.70
2022-08-08T12:10:54.243Z,25.80
2022-08-08T12:17:36.131Z,25.80
2022-08-08T12:35:18.276Z,25.80
2022-08-08T13:00:20.369Z,25.40
2022-08-08T13:38:05.401Z,25.50
2022-08-08T13:42:53.524Z,25.30
2022-08-08T13:48:03.922Z,25.30
2022-08-08T13:53:25.078Z,25.30
2022-08-08T13:58:38.786Z,25.30
2022-08-08T14:10:37.532Z,25.30
2022-08-08T14:16:16.743Z,25.30
2022-08-08T14:21:20.797Z,25.30
2022-08-08T14:26:28.343Z,25.30
2022-08-08T14:32:06.104Z,25.40
2022-08-08T14:36:53.264Z,25.50
2022-08-08T14:49:01.600Z,25.50
2022-08-08T14:54:28.321Z,25.40
2022-08-08T15:06:20.485Z,25.30
2022-08-08T15:10:56.808Z,25.30
2022-08-08T15:16:11.755Z,25.30
2022-08-08T15:21:16.210Z,25.30
2022-08-08T15:26:53.201Z,25.20
2022-08-08T15:32:18.947Z,25.30
2022-08-08T15:37:17.194Z,25.30
2022-08-08T15:42:17.948Z,25.30
2022-08-08T15:47:40.179Z,25.30
2022-08-08T15:52:54.966Z,25.30
2022-08-08T15:57:51.057Z,25.30
2022-08-08T16:02:51.235Z,25.30
2022-08-08T16:08:01.396Z,25.30
2022-08-08T16:13:32.384Z,25.30
2022-08-08T16:18:28.273Z,25.20
2022-08-08T16:23:33.855Z,25.10
2022-08-08T16:28:52.529Z,25.10
2022-08-08T16:33:59.215Z,25.10
2022-08-08T16:39:59.981Z,25.10
2022-08-08T16:44:38.169Z,25.00
2022-08-08T16:55:03.608Z,25.00
2022-08-08T16:57:01.521Z,25.00
2022-08-08T17:08:03.903Z,24.80
2022-08-08T17:13:06.591Z,24.80
2022-08-08T17:25:28.481Z,24.70
2022-08-08T17:31:39.454Z,24.60
2022-08-08T17:42:33.674Z,24.50
2022-08-08T17:47:40.972Z,24.40
2022-08-08T17:52:38.294Z,24.50
2022-08-08T17:58:03.587Z,24.40
2022-08-08T18:03:13.214Z,24.40
2022-08-08T18:08:24.204Z,24.30
2022-08-08T18:14:05.873Z,24.30
2022-08-08T18:19:21.296Z,24.00
2022-08-08T18:24:18.875Z,23.90
2022-08-08T18:29:15.426Z,23.90
2022-08-08T18:34:25.699Z,23.80
2022-08-08T18:39:28.348Z,23.80
2022-08-08T18:44:22.518Z,23.80
2022-08-08T18:49:22.690Z,23.80
2022-08-08T18:54:24.744Z,23.70
2022-08-08T18:59:24.568Z,23.70
2022-08-08T19:04:27.879Z,23.50
2022-08-08T19:09:23.297Z,23.30
2022-08-08T19:14:37.787Z,23.10
2022-08-08T19:19:31.645Z,22.90
2022-08-08T19:24:42.467Z,22.90
2022-08-08T19:29:42.528Z,22.80
2022-08-08T19:34:41.637Z,22.80
2022-08-08T19:39:36.325Z,22.70
2022-08-08T19:44:45.536Z,22.60
2022-08-08T19:49:43.570Z,22.50
2022-08-08T19:54:59.538Z,22.30
2022-08-08T20:00:11.272Z,22.10
2022-08-08T20:06:14.323Z,21.90
2022-08-08T20:10:37.593Z,21.70
2022-08-08T20:15:59.981Z,21.60
2022-08-08T20:20:45.909Z,21.50
2022-08-08T20:25:39.195Z,21.30
2022-08-08T20:30:35.639Z,21.30
2022-08-08T20:35:58.511Z,21.20
2022-08-08T20:40:57.528Z,21.00
2022-08-08T20:45:58.155Z,20.80
2022-08-08T20:50:58.275Z,20.80
2022-08-08T20:55:51.964Z,20.70
2022-08-08T21:00:45.700Z,20.60
2022-08-08T21:05:59.123Z,20.60
2022-08-08T21:10:54.302Z,20.50
2022-08-08T21:16:04.971Z,20.40
2022-08-08T21:21:01.147Z,20.40
2022-08-08T21:25:57.853Z,20.10
2022-08-08T21:30:52.101Z,20.10
2022-08-08T21:36:18.415Z,20.00
2022-08-08T21:41:00.629Z,19.90
2022-08-08T21:48:05.916Z,19.80
2022-08-08T21:51:11.327Z,19.90
2022-08-08T21:56:27.037Z,19.90
2022-08-08T22:01:28.159Z,19.80
2022-08-08T22:06:34.206Z,19.60
2022-08-08T22:12:02.237Z,19.50
2022-08-08T22:16:47.905Z,19.20
2022-08-08T22:21:46.856Z,19.20
2022-08-08T22:27:01.585Z,19.20
2022-08-08T22:32:01.753Z,19.00
2022-08-08T22:36:56.066Z,19.10
2022-08-08T22:41:50.866Z,19.20
2022-08-08T22:46:45.681Z,19.10
2022-08-08T22:51:42.503Z,19.10
2022-08-08T22:56:39.654Z,19.00
2022-08-08T23:02:01.834Z,19.10
2022-08-08T23:06:47.917Z,19.00
2022-08-08T23:12:28.022Z,18.90
2022-08-08T23:17:10.956Z,18.70
2022-08-08T23:22:06.607Z,18.80
2022-08-08T23:27:01.479Z,18.80
2022-08-08T23:31:55.335Z,18.60
2022-08-08T23:36:57.873Z,18.50
2022-08-08T23:41:51.479Z,18.50
2022-08-08T23:49:03.020Z,18.50
2022-08-08T23:52:05.956Z,18.40
2022-08-08T23:57:00.775Z,18.50
